Time;durP1;ratioP1;P1;durP2;ratioP2;P2;SDS_P1;SDS_P2;PMS_P1;PMS_P2;Temp;Humidity;BMP_temperature;BMP_pressure;BME280_temperature;BME280_humidity;BME280_pressure;Samples;Min_cycle;Max_cycle;Signal;HPM_P1;HPM_P2
2021/01/22 00:01:15;;;;;;;81.85;43.28;;;;;;;-2.96;100.00;101549.16;1795664;79;21409;-86
2021/01/22 00:03:43;;;;;;;91.40;46.60;;;;;;;-2.94;100.00;101547.05;1795529;79;21128;-86
2021/01/22 00:06:11;;;;;;;88.03;47.20;;;;;;;-2.91;100.00;101541.91;1795551;79;21161;-86
2021/01/22 00:08:39;;;;;;;74.47;40.05;;;;;;;-2.87;100.00;101535.97;1795577;79;21070;-86
2021/01/22 00:11:07;;;;;;;78.90;43.63;;;;;;;-2.82;100.00;101533.40;1795699;78;21153;-86
2021/01/22 00:13:36;;;;;;;75.87;41.90;;;;;;;-2.78;100.00;101540.16;1795653;79;22010;-86
2021/01/22 00:16:05;;;;;;;78.30;42.10;;;;;;;-2.74;100.00;101540.99;1795622;79;21193;-86
2021/01/22 00:18:32;;;;;;;70.55;39.10;;;;;;;-2.71;100.00;101537.16;1795644;79;21162;-86
2021/01/22 00:21:01;;;;;;;75.75;44.27;;;;;;;-2.69;100.00;101531.64;1795605;79;21197;-86
2021/01/22 00:23:29;;;;;;;76.28;41.30;;;;;;;-2.67;100.00;101527.35;1795639;78;21149;-86
2021/01/22 00:25:57;;;;;;;72.30;40.60;;;;;;;-2.65;100.00;101533.74;1795536;78;21593;-85
2021/01/22 00:28:25;;;;;;;69.42;38.33;;;;;;;-2.63;100.00;101538.38;1795630;78;21170;-85
2021/01/22 00:30:53;;;;;;;66.37;36.55;;;;;;;-2.62;100.00;101532.02;1795614;79;21126;-85
2021/01/22 00:33:21;;;;;;;66.87;37.58;;;;;;;-2.60;100.00;101536.66;1793543;79;21142;-86
2021/01/22 00:35:50;;;;;;;70.08;37.28;;;;;;;-2.58;100.00;101531.13;1792815;79;21138;-85
2021/01/22 00:38:18;;;;;;;66.20;38.13;;;;;;;-2.55;100.00;101533.67;1792770;79;21132;-86
2021/01/22 00:40:46;;;;;;;71.02;38.92;;;;;;;-2.54;100.00;101527.72;1792692;79;21090;-85
2021/01/22 00:43:14;;;;;;;72.12;39.10;;;;;;;-2.50;100.00;101531.10;1792717;79;21059;-86
2021/01/22 00:45:42;;;;;;;76.57;41.80;;;;;;;-2.46;100.00;101533.20;1792765;79;21484;-85
2021/01/22 00:48:10;;;;;;;69.25;37.85;;;;;;;-2.43;100.00;101521.69;1792834;79;21042;-85
2021/01/22 00:50:39;;;;;;;79.67;40.75;;;;;;;-2.40;100.00;101520.41;1792737;79;21368;-86
2021/01/22 00:53:07;;;;;;;81.08;43.65;;;;;;;-2.39;100.00;101513.17;1792811;79;21200;-85
2021/01/22 00:55:36;;;;;;;80.05;42.45;;;;;;;-2.38;100.00;101513.59;1792887;80;21188;-85
2021/01/22 00:58:22;;;;;;;73.00;40.78;;;;;;;-2.36;100.00;101509.30;1792774;79;21153;-85
2021/01/22 01:00:52;;;;;;;92.47;46.70;;;;;;;-2.35;100.00;101512.28;1792871;79;21153;-85
2021/01/22 01:03:22;;;;;;;72.37;38.85;;;;;;;-2.35;100.00;101509.73;1789629;79;21397;-85
2021/01/22 01:05:50;;;;;;;76.28;43.17;;;;;;;-2.34;100.00;101501.22;1792737;79;21118;-86
2021/01/22 01:08:18;;;;;;;76.10;41.77;;;;;;;-2.34;100.00;101496.12;1792743;79;21094;-86
2021/01/22 01:10:48;;;;;;;70.70;38.05;;;;;;;-2.32;100.00;101493.13;1789740;79;21497;-85
2021/01/22 01:13:21;;;;;;;67.95;36.13;;;;;;;-2.33;100.00;101490.16;1821371;77;21601;-85
2021/01/22 01:16:00;;;;;;;82.57;43.48;;;;;;;-2.30;100.00;101488.01;1821046;77;21360;-85
2021/01/22 01:18:28;;;;;;;77.40;40.08;;;;;;;-2.28;100.00;101492.68;1825183;77;21542;-86
2021/01/22 01:20:56;;;;;;;80.05;41.95;;;;;;;-2.25;100.00;101497.33;1825353;77;21157;-86
2021/01/22 01:23:24;;;;;;;69.60;37.88;;;;;;;-2.22;100.00;101499.87;1825196;77;21533;-86
2021/01/22 01:25:52;;;;;;;65.47;36.50;;;;;;;-2.20;100.00;101499.84;1825347;77;21208;-86
2021/01/22 01:28:20;;;;;;;67.35;35.58;;;;;;;-2.17;100.00;101501.11;1825250;77;21179;-86
2021/01/22 01:30:47;;;;;;;67.03;36.38;;;;;;;-2.13;100.00;101501.94;1825271;78;21074;-86
2021/01/22 01:33:15;;;;;;;63.23;35.63;;;;;;;-2.13;100.00;101500.66;1826541;77;21062;-86
2021/01/22 01:35:43;;;;;;;80.20;38.33;;;;;;;-2.09;100.00;101502.31;1828073;77;21141;-86
2021/01/22 01:38:11;;;;;;;66.85;35.68;;;;;;;-2.07;100.00;101497.60;1825375;77;21443;-85
2021/01/22 01:40:39;;;;;;;75.55;38.33;;;;;;;-2.03;100.00;101488.22;1827350;77;21183;-85
2021/01/22 01:43:07;;;;;;;77.95;39.13;;;;;;;-2.01;100.00;101486.50;1795700;79;21129;-85
2021/01/22 01:45:39;;;;;;;53.83;28.38;;;;;;;-1.98;100.00;101485.63;1795680;78;21148;-85
2021/01/22 01:48:09;;;;;;;67.82;33.70;;;;;;;-1.93;100.00;101496.66;1792943;79;21224;-85
2021/01/22 01:50:39;;;;;;;64.62;33.58;;;;;;;-1.91;100.00;101492.36;1795815;79;21114;-85
2021/01/22 01:53:08;;;;;;;66.00;35.35;;;;;;;-1.88;100.00;101489.80;1795393;79;21471;-85
2021/01/22 01:55:37;;;;;;;67.55;35.28;;;;;;;-1.84;100.00;101491.89;1823469;77;21078;-85
2021/01/22 01:58:06;;;;;;;60.67;32.78;;;;;;;-1.81;100.00;101487.59;1828286;77;21098;-85
2021/01/22 02:00:35;;;;;;;59.30;30.45;;;;;;;-1.78;100.00;101483.75;1828309;78;21142;-85
2021/01/22 02:03:03;;;;;;;51.10;26.10;;;;;;;-1.76;100.00;101480.72;1828264;77;21650;-85
2021/01/22 02:05:32;;;;;;;65.55;33.80;;;;;;;-1.71;100.00;101477.30;1828332;77;21350;-85
2021/01/22 02:08:01;;;;;;;68.00;35.03;;;;;;;-1.67;100.00;101474.70;1828273;77;21500;-86
2021/01/22 02:10:31;;;;;;;73.25;36.15;;;;;;;-1.60;100.00;101472.49;1828412;77;21217;-85
2021/01/22 02:13:01;;;;;;;72.97;36.40;;;;;;;-1.49;100.00;101475.38;1828330;77;21172;-85
2021/01/22 02:15:30;;;;;;;77.62;35.03;;;;;;;-1.43;100.00;101468.91;1826300;77;21154;-85
2021/01/22 02:17:58;;;;;;;74.17;36.75;;;;;;;-1.37;100.00;101476.49;1795788;79;21359;-85
2021/01/22 02:20:52;;;;;;;67.70;34.73;;;;;;;-1.35;100.00;101469.66;1795639;79;21201;-85
2021/01/22 02:23:22;;;;;;;68.28;35.03;;;;;;;-1.33;100.00;101473.05;1795648;79;21470;-85
2021/01/22 02:25:55;;;;;;;72.40;36.13;;;;;;;-1.31;100.00;101462.36;1795687;79;21478;-85
2021/01/22 02:28:23;;;;;;;70.15;35.10;;;;;;;-1.25;100.00;101470.84;1795778;79;21214;-85
2021/01/22 02:30:53;;;;;;;67.00;31.35;;;;;;;-1.22;100.00;101468.22;1795685;79;21355;-85
2021/01/22 02:33:22;;;;;;;77.37;36.65;;;;;;;-1.18;100.00;101475.00;1795489;79;21149;-85
2021/01/22 02:35:53;;;;;;;66.42;33.40;;;;;;;-1.15;100.00;101470.70;1795704;79;21114;-85
2021/01/22 02:38:23;;;;;;;;;;;;;;;-1.11;100.00;101471.50;1795896;79;21522;-85
2021/01/22 02:40:56;;;;;;;59.08;29.12;;;;;;;-1.09;100.00;101465.95;1795831;79;20495;-86
2021/01/22 02:43:23;;;;;;;61.35;31.75;;;;;;;-1.07;100.00;101465.92;1792891;79;26696;-85
2021/01/22 02:45:52;;;;;;;53.58;28.50;;;;;;;-1.06;100.00;101454.83;1795765;79;21145;-85
2021/01/22 02:48:20;;;;;;;50.48;27.73;;;;;;;-1.02;100.00;101456.05;1795639;79;21153;-85
2021/01/22 02:50:50;;;;;;;40.38;25.45;;;;;;;-0.98;100.00;101451.30;1795567;79;21133;-86
2021/01/22 02:53:18;;;;;;;50.40;29.05;;;;;;;-0.96;100.00;101452.12;1795711;79;21145;-85
2021/01/22 02:55:46;;;;;;;52.17;27.80;;;;;;;-0.93;100.00;101455.06;1795727;79;21533;-85
2021/01/22 02:58:43;;;;;;;45.50;25.40;;;;;;;-0.91;100.00;101449.92;1795668;79;21229;-86
2021/01/22 03:01:15;;;;;;;48.25;28.10;;;;;;;-0.90;100.00;101441.39;1793080;79;21233;-85
2021/01/22 03:04:01;;;;;;;40.70;24.23;;;;;;;-0.86;100.00;101439.22;1793051;78;21248;-85
2021/01/22 03:06:43;;;;;;;44.67;25.68;;;;;;;-0.83;100.00;101434.04;1791379;79;21184;-85
2021/01/22 03:09:20;;;;;;;45.85;25.60;;;;;;;-0.80;100.00;101431.45;1792999;79;21416;-85
2021/01/22 03:11:51;;;;;;;46.70;25.95;;;;;;;-0.75;100.00;101436.05;1794130;79;21117;-85
2021/01/22 03:14:20;;;;;;;50.12;28.65;;;;;;;-0.72;100.00;101424.95;1815086;77;21067;-86
2021/01/22 03:16:50;;;;;;;46.90;26.30;;;;;;;-0.68;100.00;101426.14;1795555;79;21505;-85
2021/01/22 03:19:18;;;;;;;55.55;29.52;;;;;;;-0.66;100.00;101429.52;1795707;79;21157;-85
2021/01/22 03:21:46;;;;;;;52.05;28.45;;;;;;;-0.64;100.00;101425.66;1795568;79;21197;-85
2021/01/22 03:24:14;;;;;;;49.55;29.02;;;;;;;-0.62;100.00;101426.48;1795622;79;21193;-85
2021/01/22 03:26:42;;;;;;;49.98;28.15;;;;;;;-0.59;100.00;101429.01;1795700;78;21272;-85
2021/01/22 03:29:10;;;;;;;54.08;30.27;;;;;;;-0.58;100.00;101425.58;1806435;77;21142;-85
2021/01/22 03:31:40;;;;;;;55.15;30.65;;;;;;;-0.56;100.00;101431.50;1795686;78;21122;-86
2021/01/22 03:34:07;;;;;;;61.42;31.25;;;;;;;-0.54;100.00;101437.89;1805346;77;21185;-86
2021/01/22 03:36:35;;;;;;;57.20;30.88;;;;;;;-0.55;100.00;101433.64;1825504;77;22073;-85
2021/01/22 03:39:03;;;;;;;60.88;32.10;;;;;;;-0.54;100.00;101434.89;1825452;77;21182;-86
2021/01/22 03:41:31;;;;;;;58.15;32.10;;;;;;;-0.52;100.00;101431.05;1825315;77;21157;-85
2021/01/22 03:43:59;;;;;;;51.77;29.67;;;;;;;-0.51;100.00;101421.19;1825335;77;21114;-86
2021/01/22 03:46:28;;;;;;;48.75;29.63;;;;;;;-0.48;100.00;101427.55;1825206;77;21361;-85
2021/01/22 03:48:57;;;;;;;49.63;28.15;;;;;;;-0.44;100.00;101428.34;1825173;78;21158;-85
2021/01/22 03:51:25;;;;;;;47.78;27.93;;;;;;;-0.42;100.00;101436.41;1825254;77;21252;-85
2021/01/22 03:53:54;;;;;;;52.33;30.48;;;;;;;-0.41;100.00;101424.02;1825334;77;21594;-85
2021/01/22 03:56:21;;;;;;;50.85;27.15;;;;;;;-0.40;100.00;101430.00;1825354;78;21145;-85
2021/01/22 03:58:49;;;;;;;50.08;28.27;;;;;;;-0.37;100.00;101437.61;1825084;77;21451;-85
2021/01/22 04:01:20;;;;;;;43.83;25.17;;;;;;;-0.35;100.00;101445.67;1805939;78;21124;-85
2021/01/22 04:03:49;;;;;;;44.30;26.68;;;;;;;-0.34;100.00;101435.84;1806062;79;21136;-85
2021/01/22 04:06:18;;;;;;;46.80;28.07;;;;;;;-0.32;100.00;101441.80;1805550;78;21124;-85
2021/01/22 04:08:46;;;;;;;49.65;28.92;;;;;;;-0.30;100.00;101439.64;1806107;78;21619;-86
2021/01/22 04:11:17;;;;;;;57.65;32.70;;;;;;;-0.30;100.00;101439.64;1806986;79;22258;-85
2021/01/22 04:13:45;;;;;;;56.55;31.73;;;;;;;-0.30;100.00;101437.09;1806972;79;21132;-85
2021/01/22 04:16:13;;;;;;;52.27;29.65;;;;;;;-0.29;100.00;101441.34;1806052;79;21109;-85
2021/01/22 04:18:41;;;;;;;47.78;28.57;;;;;;;-0.28;100.00;101434.08;1806415;78;21109;-85
2021/01/22 04:21:11;;;;;;;48.20;27.32;;;;;;;-0.27;100.00;101439.16;1805301;78;21604;-86
2021/01/22 04:23:40;;;;;;;49.00;27.13;;;;;;;-0.26;100.00;101437.43;1782737;79;21534;-86
2021/01/22 04:26:08;;;;;;;39.20;23.60;;;;;;;-0.26;100.00;101434.87;1803781;78;21070;-86
2021/01/22 04:28:35;;;;;;;50.85;27.32;;;;;;;-0.26;100.00;101436.15;1803542;77;21082;-86
2021/01/22 04:31:03;;;;;;;45.25;24.30;;;;;;;-0.26;100.00;101432.31;1795541;79;21168;-86
2021/01/22 04:33:32;;;;;;;56.33;28.50;;;;;;;-0.26;100.00;101433.59;1795502;79;21176;-86
2021/01/22 04:36:01;;;;;;;57.50;29.63;;;;;;;-0.27;100.00;101434.04;1795490;79;21359;-86
2021/01/22 04:38:29;;;;;;;64.35;30.90;;;;;;;-0.26;100.00;101428.05;1795449;79;21592;-86
2021/01/22 04:40:58;;;;;;;59.77;29.90;;;;;;;-0.25;100.00;101431.44;1808278;77;21138;-86
2021/01/22 04:43:26;;;;;;;61.77;28.92;;;;;;;-0.26;100.00;101422.07;1799442;78;21118;-86
2021/01/22 04:45:54;;;;;;;56.70;28.30;;;;;;;-0.26;100.00;101425.49;1795667;79;21271;-86
2021/01/22 04:48:22;;;;;;;51.68;25.57;;;;;;;-0.25;100.00;101423.34;1796813;78;21172;-87
2021/01/22 04:50:52;;;;;;;43.48;24.92;;;;;;;-0.23;100.00;101422.03;1808089;77;21125;-87
2021/01/22 04:53:24;;;;;;;41.95;23.65;;;;;;;-0.20;100.00;101415.59;1789801;79;21180;-86
2021/01/22 04:55:56;;;;;;;53.68;25.12;;;;;;;-0.17;100.00;101414.23;1790269;79;21201;-87
2021/01/22 04:58:25;;;;;;;42.67;23.80;;;;;;;-0.14;100.00;101401.39;1815044;78;21201;-87
2021/01/22 05:00:54;;;;;;;44.15;23.65;;;;;;;-0.12;100.00;101411.15;1828327;78;21348;-87
2021/01/22 05:03:28;;;;;;;47.75;25.82;;;;;;;-0.10;100.00;101409.41;1828220;77;21078;-87
2021/01/22 05:05:57;;;;;;;47.73;26.62;;;;;;;-0.09;100.00;101402.14;1828026;77;21142;-87
2021/01/22 05:08:26;;;;;;;48.42;25.97;;;;;;;-0.09;100.00;101408.55;1828152;77;21109;-87
2021/01/22 05:10:54;;;;;;;49.88;26.97;;;;;;;-0.08;100.00;101406.84;1828422;77;21117;-87
2021/01/22 05:13:22;;;;;;;49.75;26.87;;;;;;;-0.07;100.00;101401.69;1828182;77;21434;-87
2021/01/22 05:16:11;;;;;;;47.95;27.35;;;;;;;-0.05;100.00;101397.39;1828137;77;21462;-86
2021/01/22 05:18:40;;;;;;;45.33;25.82;;;;;;;-0.01;100.00;101400.73;1828154;77;21153;-87
2021/01/22 05:21:13;;;;;;;46.42;26.48;;;;;;;0.02;100.00;101398.55;1828153;77;21495;-86
2021/01/22 05:23:43;;;;;;;50.98;28.67;;;;;;;0.02;100.00;101403.23;1827904;77;43006;-86
2021/01/22 05:26:14;;;;;;;52.98;28.87;;;;;;;0.02;100.00;101399.84;1828133;77;21177;-86
2021/01/22 05:28:48;;;;;;;49.33;27.85;;;;;;;0.02;100.00;101397.27;1823122;77;21217;-87
2021/01/22 05:31:19;;;;;;;51.73;28.98;;;;;;;0.02;100.00;101395.99;1821952;78;21093;-87
2021/01/22 05:33:59;;;;;;;44.08;25.23;;;;;;;0.02;100.00;101392.16;1799291;78;21169;-86
2021/01/22 05:36:30;;;;;;;46.33;25.62;;;;;;;0.03;100.00;101396.41;1799762;78;21172;-86
2021/01/22 05:39:01;;;;;;;45.23;26.10;;;;;;;0.05;100.00;101393.36;1808706;79;21618;-86
2021/01/22 05:41:29;;;;;;;42.55;24.10;;;;;;;0.07;100.00;101388.64;1808682;79;28286;-85
2021/01/22 05:43:58;;;;;;;40.15;23.35;;;;;;;0.11;100.00;101386.86;1808531;78;21102;-86
2021/01/22 05:46:28;;;;;;;41.08;24.37;;;;;;;0.12;100.00;101383.43;1808563;78;22060;-86
2021/01/22 05:49:14;;;;;;;42.80;25.05;;;;;;;0.11;100.00;101382.56;1808563;78;21142;-86
2021/01/22 05:51:44;;;;;;;38.33;22.95;;;;;;;0.13;100.00;101382.11;1798232;78;21617;-87
2021/01/22 05:54:33;;;;;;;38.40;23.07;;;;;;;0.17;100.00;101385.87;1790932;78;21166;-85
2021/01/22 05:57:02;;;;;;;38.45;23.00;;;;;;;0.18;100.00;101380.74;1791835;78;21846;-84
2021/01/22 05:59:30;;;;;;;35.73;22.45;;;;;;;0.20;100.00;101381.53;1790484;78;21487;-86
2021/01/22 06:01:58;;;;;;;36.75;22.37;;;;;;;0.23;100.00;101380.20;1778566;79;21117;-86
2021/01/22 06:04:26;;;;;;;42.70;25.35;;;;;;;0.29;100.00;101378.80;1776719;79;22125;-86
2021/01/22 06:06:54;;;;;;;40.90;24.00;;;;;;;0.36;100.00;101379.98;1776630;79;21153;-86
2021/01/22 06:09:33;;;;;;;41.90;24.35;;;;;;;0.42;100.00;101379.84;1784031;79;21169;-87
2021/01/22 06:12:03;;;;;;;44.95;24.98;;;;;;;0.45;100.00;101374.22;1780334;78;21624;-87
2021/01/22 06:14:36;;;;;;;46.73;25.87;;;;;;;0.51;100.00;101374.53;1776870;79;21146;-86
2021/01/22 06:17:06;;;;;;;42.65;24.87;;;;;;;0.54;100.00;101368.05;1793549;78;22134;-87
2021/01/22 06:19:40;;;;;;;58.42;26.90;;;;;;;0.57;100.00;101367.99;1776707;79;21134;-86
2021/01/22 06:22:20;;;;;;;49.80;26.48;;;;;;;0.60;100.00;101380.72;1806581;78;21448;-87
2021/01/22 06:24:50;;;;;;;52.60;28.05;;;;;;;0.64;100.00;101387.94;1804374;78;21581;-87
2021/01/22 06:27:19;;;;;;;48.10;27.95;;;;;;;0.70;100.00;101384.38;1808758;78;21236;-87
2021/01/22 06:29:49;;;;;;;47.78;28.60;;;;;;;0.75;100.00;101390.27;1808967;78;22123;-88
2021/01/22 06:32:20;;;;;;;50.20;25.10;;;;;;;0.80;100.00;101391.00;1802126;78;21176;-87
2021/01/22 06:34:49;;;;;;;43.48;26.17;;;;;;;0.85;100.00;101394.75;1766440;80;21141;-87
2021/01/22 06:37:18;;;;;;;39.73;24.07;;;;;;;0.91;100.00;101399.31;1776915;79;21157;-87
2021/01/22 06:39:47;;;;;;;43.20;24.47;;;;;;;0.99;100.00;101400.86;1796663;79;21176;-87
2021/01/22 06:42:15;;;;;;;44.60;25.57;;;;;;;1.01;100.00;101400.36;1776894;79;22269;-86
2021/01/22 06:44:44;;;;;;;52.62;27.77;;;;;;;1.02;100.00;101399.48;1776864;79;21641;-88
2021/01/22 06:47:13;;;;;;;48.30;27.32;;;;;;;1.04;100.00;101399.86;1776885;79;21209;-86
2021/01/22 06:49:42;;;;;;;40.70;23.77;;;;;;;1.07;100.00;101396.41;1796785;78;21541;-87
2021/01/22 06:52:13;;;;;;;44.90;27.00;;;;;;;1.09;100.00;101392.05;1802276;79;21652;-86
2021/01/22 06:55:06;;;;;;;45.30;26.80;;;;;;;1.11;100.00;101390.30;1777187;80;21414;-86
2021/01/22 06:57:37;;;;;;;46.70;26.62;;;;;;;1.16;100.00;101389.75;1776986;79;21272;-85
2021/01/22 07:04:37;;;;;;;52.75;27.77;;;;;;;1.29;100.00;101389.48;1794503;79;21180;-86
2021/01/22 07:07:44;;;;;;;51.40;29.27;;;;;;;1.33;100.00;101389.37;1775788;79;21051;-86
2021/01/22 07:14:48;;;;;;;41.25;24.30;;;;;;;1.36;100.00;101394.86;1806871;79;21157;-84
2021/01/22 07:26:04;;;;;;;40.03;22.98;;;;;;;1.30;100.00;101389.43;1766613;80;21168;-84
2021/01/22 07:32:55;;;;;;;35.63;22.02;;;;;;;1.23;100.00;101385.33;1746819;82;21173;-83
2021/01/22 07:39:20;;;;;;;37.48;21.27;;;;;;;1.19;100.00;101374.30;1747074;81;21113;-83
2021/01/22 07:46:13;;;;;;;41.02;22.52;;;;;;;1.18;100.00;101380.75;1767827;80;21240;-83
2021/01/22 07:52:56;;;;;;;44.27;23.98;;;;;;;1.21;100.00;101380.24;1747465;81;21121;-83
2021/01/22 07:55:25;;;;;;;46.05;25.37;;;;;;;1.20;100.00;101368.29;1746918;82;21117;-83
2021/01/22 08:02:21;;;;;;;41.05;21.55;;;;;;;1.23;100.00;101375.06;1746905;82;21618;-83
2021/01/22 08:09:13;;;;;;;42.67;22.35;;;;;;;1.28;100.00;101371.97;1746909;82;21442;-83
2021/01/22 08:16:08;;;;;;;39.58;23.00;;;;;;;1.35;100.00;101372.64;1774983;80;21070;-83
2021/01/22 08:23:00;;;;;;;41.18;25.12;;;;;;;1.43;100.00;101379.72;1777674;80;21141;-83
2021/01/22 08:29:53;;;;;;;41.90;23.80;;;;;;;1.50;100.00;101381.24;1756847;80;21176;-84
2021/01/22 08:36:44;;;;;;;46.63;26.05;;;;;;;1.62;100.00;101367.70;1779764;78;21572;-84
2021/01/22 08:39:52;;;;;;;40.65;24.30;;;;;;;1.65;100.00;101369.76;1792753;79;21616;-84
2021/01/22 08:42:23;;;;;;;39.60;24.23;;;;;;;1.67;100.00;101367.14;1796415;79;21130;-85
2021/01/22 08:49:16;;;;;;;42.23;26.45;;;;;;;1.71;100.00;101362.34;1796452;79;21573;-86
2021/01/22 08:56:15;;;;;;;47.78;28.27;;;;;;;1.77;100.00;101352.33;1796506;79;21470;-85
2021/01/22 08:59:07;;;;;;;52.17;30.88;;;;;;;1.83;100.00;101354.75;1782016;78;21581;-85
2021/01/22 09:01:58;;;;;;;48.33;29.57;;;;;;;1.84;100.00;101350.02;1790178;79;21154;-85
2021/01/22 09:08:54;;;;;;;;;;;;;;;1.84;100.00;101353.42;1799175;79;21357;-85
2021/01/22 09:15:26;;;;;;;51.10;31.42;;;;;;;1.86;100.00;101349.09;1796467;79;21177;-86
2021/01/22 09:25:48;;;;;;;43.68;26.57;;;;;;;1.95;100.00;101352.30;1789479;78;21357;-86
2021/01/22 09:37:01;;;;;;;55.12;31.07;;;;;;;2.04;100.00;101335.35;1741751;80;21068;-87
2021/01/22 09:40:10;;;;;;;54.80;30.90;;;;;;;2.05;100.00;101330.58;1740954;81;21118;-87
2021/01/22 09:46:44;;;;;;;59.90;34.45;;;;;;;2.04;100.00;101328.93;1736236;80;21142;-87
2021/01/22 09:53:28;;;;;;;58.15;32.55;;;;;;;2.00;100.00;101324.75;1714489;82;21157;-87
2021/01/22 10:00:19;;;;;;;52.35;32.38;;;;;;;2.00;100.00;101313.19;1745538;80;21133;-87
2021/01/22 10:03:17;;;;;;;47.60;29.67;;;;;;;2.01;100.00;101322.58;1745214;80;21580;-87
2021/01/22 10:10:13;;;;;;;44.18;28.23;;;;;;;2.04;100.00;101309.66;1725127;82;21142;-87
2021/01/22 10:16:46;;;;;;;50.85;28.92;;;;;;;2.10;100.00;101300.91;1716915;80;21257;-88
2021/01/22 10:19:14;;;;;;;38.88;26.85;;;;;;;2.15;100.00;101293.47;1725805;82;21130;-89
2021/01/22 10:21:44;;;;;;;46.37;28.47;;;;;;;2.18;100.00;101286.11;1745138;82;21558;-89
2021/01/22 10:24:42;;;;;;;43.48;27.45;;;;;;;2.19;100.00;101283.52;1745112;82;21153;-88
2021/01/22 10:27:10;;;;;;;48.15;29.02;;;;;;;2.21;100.00;101280.44;1745209;82;21669;-88
2021/01/22 10:29:44;;;;;;;45.45;26.97;;;;;;;2.23;100.00;101275.70;1733291;82;22273;-89
2021/01/22 10:32:45;;;;;;;38.15;26.02;;;;;;;2.23;100.00;101276.56;1685270;82;21596;-89
2021/01/22 10:35:14;;;;;;;45.70;26.25;;;;;;;2.21;100.00;101275.30;1763139;80;21155;-89
2021/01/22 10:38:17;;;;;;;47.45;28.83;;;;;;;2.20;100.00;101272.33;1795541;78;21166;-89
2021/01/22 10:41:13;;;;;;;44.10;29.23;;;;;;;2.18;100.00;101271.55;1804035;78;21095;-89
2021/01/22 10:43:48;;;;;;;44.03;27.55;;;;;;;2.17;100.00;101271.16;1795016;78;21534;-89
2021/01/22 10:46:45;;;;;;;43.02;27.35;;;;;;;2.18;100.00;101262.56;1793362;79;21107;-88
2021/01/22 10:49:44;;;;;;;44.25;28.55;;;;;;;2.21;100.00;101253.91;1804493;79;21155;-89
2021/01/22 10:52:16;;;;;;;40.52;26.40;;;;;;;2.25;100.00;101250.80;1804030;79;21508;-89
2021/01/22 10:54:50;;;;;;;46.08;27.90;;;;;;;2.25;100.00;101249.06;1804109;78;21138;-88
2021/01/22 10:57:46;;;;;;;44.55;27.95;;;;;;;2.26;100.00;101242.21;1800022;79;21352;-88
2021/01/22 11:04:16;;;;;;;44.03;24.92;;;;;;;2.26;100.00;101237.07;1768790;80;21161;-88
2021/01/22 11:11:09;;;;;;;36.05;22.48;;;;;;;2.27;100.00;101229.77;1747753;80;21165;-88
2021/01/22 11:17:41;;;;;;;40.70;23.92;;;;;;;2.25;100.00;101223.36;1746713;82;21848;-88
2021/01/22 11:28:08;;;;;;;36.70;20.97;;;;;;;2.29;100.00;101216.40;1746712;82;21165;-88
2021/01/22 11:31:06;;;;;;;31.80;20.52;;;;;;;2.28;100.00;101209.14;1746779;82;21368;-88
2021/01/22 11:37:58;;;;;;;35.00;21.90;;;;;;;2.29;100.00;101204.83;1757239;80;21114;-93
2021/01/22 11:40:58;;;;;;;29.12;18.92;;;;;;;2.27;100.00;101201.03;1765068;80;21541;-91
2021/01/22 11:47:30;;;;;;;29.52;20.43;;;;;;;2.27;100.00;101197.64;1764951;81;21566;-87
2021/01/22 11:54:13;;;;;;;29.75;19.75;;;;;;;2.25;100.00;101185.27;1765494;80;21179;-87
2021/01/22 12:09:27;;;;;;;30.48;18.95;;;;;;;2.23;100.00;101167.77;1813108;79;21103;-90
2021/01/22 12:16:19;;;;;;;29.23;19.67;;;;;;;2.17;100.00;101172.22;1794399;78;21126;-90
2021/01/22 12:18:46;;;;;;;28.77;18.73;;;;;;;2.17;100.00;101178.64;1809807;78;21566;-90
2021/01/22 12:21:14;;;;;;;30.00;19.40;;;;;;;2.17;100.00;101176.08;1798271;78;22057;-93
2021/01/22 12:23:42;;;;;;;31.17;20.10;;;;;;;2.18;100.00;101175.19;1809082;78;21174;-88
2021/01/22 12:26:11;;;;;;;29.37;18.32;;;;;;;2.17;100.00;101176.08;1814330;79;21138;-90
2021/01/22 12:29:18;;;;;;;28.10;17.87;;;;;;;2.17;100.00;101177.78;1814734;79;21523;-92
2021/01/22 12:31:53;;;;;;;23.18;16.42;;;;;;;2.18;100.00;101175.62;1815036;79;21130;-92
2021/01/22 12:34:29;;;;;;;31.30;18.73;;;;;;;2.20;100.00;101178.53;1802440;78;21220;-92
2021/01/22 12:37:17;;;;;;;29.52;18.32;;;;;;;2.23;100.00;101179.33;1786987;79;21149;-91
2021/01/22 12:39:45;;;;;;;26.40;18.35;;;;;;;2.23;100.00;101176.76;1765146;80;21274;-86
2021/01/22 12:42:13;;;;;;;27.82;17.62;;;;;;;2.23;100.00;101177.62;1770461;79;21627;-86
2021/01/22 12:44:41;;;;;;;31.27;20.55;;;;;;;2.23;100.00;101175.05;1798168;78;21169;-86
2021/01/22 12:47:09;;;;;;;30.88;19.05;;;;;;;2.23;100.00;101171.63;1778811;79;21181;-86
2021/01/22 12:49:40;;;;;;;28.00;19.07;;;;;;;2.21;100.00;101171.22;1795450;79;21164;-86
2021/01/22 12:52:08;;;;;;;34.30;20.10;;;;;;;2.21;100.00;101178.93;1792356;79;21143;-86
2021/01/22 12:54:36;;;;;;;31.75;20.48;;;;;;;2.20;100.00;101181.09;1774294;78;21453;-86
2021/01/22 12:57:04;;;;;;;29.98;19.85;;;;;;;2.17;100.00;101179.07;1785859;79;21235;-86
2021/01/22 12:59:32;;;;;;;36.03;21.60;;;;;;;2.14;100.00;101182.58;1764019;81;21542;-86
2021/01/22 13:02:00;;;;;;;34.25;21.75;;;;;;;2.12;100.00;101195.94;1793136;77;21185;-86
2021/01/22 13:04:29;;;;;;;33.13;21.85;;;;;;;2.09;100.00;101185.75;1797327;78;21157;-86
2021/01/22 13:06:56;;;;;;;31.55;20.88;;;;;;;2.09;100.00;101184.89;1807494;77;21138;-86
2021/01/22 13:09:24;;;;;;;30.55;20.17;;;;;;;2.06;100.00;101181.97;1798927;78;21211;-86
2021/01/22 13:11:52;;;;;;;30.00;19.62;;;;;;;2.04;100.00;101188.45;1798506;78;22198;-86
2021/01/22 13:14:20;;;;;;;29.80;19.65;;;;;;;2.03;100.00;101190.63;1808603;77;21067;-86
2021/01/22 13:16:48;;;;;;;31.23;21.30;;;;;;;2.02;100.00;101186.83;1811719;77;21028;-88
2021/01/22 13:22:45;;;;;;;31.52;20.48;;;;;;;1.99;100.00;101189.05;1781265;78;21131;-86
2021/01/22 13:29:16;;;;;;;38.45;19.82;;;;;;;1.97;100.00;101185.67;1795663;77;21169;-85
2021/01/22 13:36:08;;;;;;;36.28;21.05;;;;;;;2.01;100.00;101183.39;1813221;79;21527;-86
2021/01/22 13:50:03;;;;;;;43.15;21.90;;;;;;;1.88;100.00;101182.92;1807155;78;21075;-86
2021/01/22 13:56:46;;;;;;;36.40;20.32;;;;;;;1.84;100.00;101183.91;1820878;78;21597;-86
2021/01/22 14:03:41;;;;;;;30.77;19.60;;;;;;;1.82;100.00;101184.84;1806120;78;21082;-85
2021/01/22 14:14:14;;;;;;;31.20;19.45;;;;;;;1.84;100.00;101182.63;1783350;78;21118;-87
2021/01/22 14:17:17;;;;;;;30.40;19.17;;;;;;;1.83;100.00;101181.39;1792228;79;21511;-86
2021/01/22 14:19:52;;;;;;;25.48;17.73;;;;;;;1.82;100.00;101179.25;1796203;79;21150;-86
2021/01/22 14:22:22;;;;;;;32.23;20.72;;;;;;;1.83;100.00;101173.23;1796317;79;21234;-86
2021/01/22 14:36:15;;;;;;;38.75;22.52;;;;;;;1.96;100.00;101175.45;1798062;78;21042;-85
2021/01/22 14:42:39;;;;;;;43.60;23.70;;;;;;;1.95;100.00;101175.87;1765843;79;21086;-85
2021/01/22 14:49:05;;;;;;;36.00;22.85;;;;;;;1.95;100.00;101171.20;1764994;81;22093;-85
2021/01/22 15:00:12;;;;;;;37.53;24.63;;;;;;;1.89;100.00;101181.20;1765623;80;21139;-87
2021/01/22 15:03:19;;;;;;;44.73;26.85;;;;;;;1.80;100.00;101179.77;1790834;79;21097;-86
2021/01/22 15:06:16;;;;;;;54.42;31.17;;;;;;;1.77;100.00;101181.55;1796435;79;21359;-86
2021/01/22 15:29:22;;;;;;;56.55;37.20;;;;;;;1.60;100.00;101165.36;1764978;81;21375;-85
2021/01/22 15:36:16;;;;;;;41.63;28.12;;;;;;;1.55;100.00;101165.06;1763474;81;21174;-85
2021/01/22 15:42:51;;;;;;;43.80;30.57;;;;;;;1.56;100.00;101172.31;1763677;79;21593;-85
2021/01/22 15:49:39;;;;;;;49.15;33.48;;;;;;;1.54;100.00;101163.38;1674735;85;21184;-85
2021/01/22 16:00:37;;;;;;;35.48;23.47;;;;;;;1.57;100.00;101168.41;1742970;81;21145;-85
2021/01/22 16:07:01;;;;;;;28.98;19.73;;;;;;;1.59;100.00;101174.80;1781288;77;21146;-89
2021/01/22 16:09:30;;;;;;;47.75;30.60;;;;;;;1.64;100.00;101175.96;1799554;78;21125;-89